Latest Weather Observations for Montague Island

IDN60901

Issued at 11:11 pm EDT Friday 15 November 2019 (issued every 10 minutes, with the page automatically refreshed every 10 minutes)

About weather observations | Map of Canberra area stations | Latest observations for Canberra area | Other Formats
Station Details ID: 069017 Name: MONTAGUE ISLAND LIGHTHOUSE Lat: -36.25 Lon: 150.23 Height: 52.0 m
Data from the previous 72 hours. | See also: Recent months at Montague Island
Date/Time
EDT
Temp
°C
App
Temp
°C
Dew
Point
°C
Rel
Hum
%
Delta-T
°C
Wind Press
QNH
hPa
Press
MSL
hPa
Rain since
9am
mm
Dir  Spd
km/h
Gust
km/h
Spd
kts
Gust
kts
15/11:00pm 16.4 12.7 12.8 79 2.0 SSE 24 30 13 16 1012.4 1012.3 0.0
15/10:30pm 16.5 11.8 13.2 81 1.8 SSE 30 35 16 19 1012.2 1012.1 0.0
15/10:00pm 16.7 12.1 13.4 81 1.9 SSE 30 33 16 18 1012.0 1011.9 0.0
15/09:30pm 17.0 12.7 13.3 79 2.1 SSE 28 32 15 17 1011.6 1011.5 0.0
15/09:00pm 17.0 12.6 12.9 77 2.3 SSE 28 33 15 18 1011.2 1011.1 0.0
15/08:30pm 17.0 12.5 12.5 75 2.5 SSE 28 32 15 17 1010.6 1010.5 0.0
15/08:00pm 16.9 11.4 12.6 76 2.4 SSE 33 39 18 21 1009.8 1009.7 0.0
15/07:30pm 16.8 10.9 12.3 75 2.5 SSE 35 41 19 22 1009.4 1009.3 0.0
15/07:00pm 17.0 10.4 12.5 75 2.5 SSE 39 46 21 25 1008.8 1008.7 0.0
15/06:30pm 17.0 10.6 12.1 73 2.7 SSE 37 46 20 25 1008.1 1008.0 0.0
15/06:00pm 17.3 11.0 12.2 72 2.8 S 37 46 20 25 1007.5 1007.4 0.0
15/05:30pm 17.5 11.4 13.0 75 2.5 S 37 48 20 26 1007.1 1007.0 0.0
15/05:00pm 17.5 10.2 13.4 77 2.3 SSE 44 52 24 28 1006.4 1006.3 0.0
15/04:30pm 18.3 13.0 15.2 82 1.8 S 37 46 20 25 1006.1 1006.0 0.0
15/04:00pm 18.3 12.7 15.4 83 1.7 SSE 39 46 21 25 1005.9 1005.8 0.0
15/03:30pm 19.2 15.0 16.1 82 1.9 SSE 33 41 18 22 1005.7 1005.6 0.0
15/03:00pm 20.3 15.9 16.7 80 2.2 S 35 44 19 24 1005.3 1005.2 0.0
15/02:30pm 20.3 17.0 17.1 82 2.0 SSE 30 39 16 21 1005.2 1005.1 0.0
15/02:00pm 21.4 19.5 16.6 74 2.9 S 22 32 12 17 1005.2 1005.1 0.0
15/01:30pm 21.3 19.7 16.0 72 3.2 SSW 19 24 10 13 1005.2 1005.1 0.0
15/01:00pm 21.8 22.0 13.2 58 5.0 NW 4 15 2 8 1005.4 1005.3 0.0
15/12:30pm 21.1 20.3 14.0 64 4.1 N 11 22 6 12 1005.8 1005.7 0.0
15/12:00pm 19.5 19.3 13.7 69 3.3 SE 7 15 4 8 1006.4 1006.3 0.0
15/11:30am 19.7 19.1 13.6 68 3.5 E 9 17 5 9 1006.8 1006.7 0.0
15/11:00am 19.8 19.9 14.4 71 3.1 NNE 7 15 4 8 1007.1 1007.0 0.0
15/10:30am 19.9 19.8 13.4 66 3.7 NNW 6 9 3 5 1007.4 1007.3 0.0
15/10:00am 20.2 20.6 15.4 74 2.9 NNW 7 15 4 8 1007.4 1007.3 0.0
15/09:30am 18.1 17.6 15.0 82 1.8 NNW 11 15 6 8 1007.6 1007.5 0.0
15/09:00am 17.1 17.0 16.0 93 0.7 NNW 11 15 6 8 1007.9 1007.8 0.0
15/08:30am 16.4 16.2 15.6 95 0.5 NNW 11 15 6 8 1007.8 1007.7 0.0
15/08:00am 15.9 15.5 15.3 96 0.3 NNW 11 17 6 9 1007.7 1007.6 0.0
15/07:30am 15.7 15.3 15.2 97 0.3 NNW 11 13 6 7 1007.6 1007.5 0.0
15/07:00am 15.7 15.7 15.2 97 0.3 NNW 9 13 5 7 1007.5 1007.4 0.0
15/06:30am 15.6 15.6 15.1 97 0.3 NNW 9 11 5 6 1007.1 1007.0 0.0
15/06:00am 15.2 15.4 14.6 96 0.3 NNW 7 9 4 5 1007.1 1007.0 0.0
15/05:30am 15.3 15.6 14.5 95 0.5 NW 6 7 3 4 1007.0 1006.9 0.0
15/05:00am 15.4 16.5 14.6 95 0.5 WSW 2 6 1 3 1007.0 1006.9 0.0
15/04:30am 15.4 16.1 14.4 94 0.6 SW 4 6 2 3 1007.2 1007.1 0.0
15/04:00am 15.7 16.8 14.7 94 0.6 SSW 2 6 1 3 1007.4 1007.3 0.0
15/03:30am 15.8 16.6 14.8 94 0.6 SW 4 6 2 3 1007.6 1007.5 0.0
15/03:00am 15.7 16.0 14.6 93 0.6 WSW 6 7 3 4 1008.0 1007.9 0.0
15/02:30am 15.9 16.3 14.8 93 0.6 WSW 6 9 3 5 1008.5 1008.4 0.0
15/02:00am 15.9 16.1 14.6 92 0.7 WSW 7 9 4 5 1008.9 1008.8 0.0
15/01:30am 16.0 16.1 14.4 90 0.9 W 7 7 4 4 1009.3 1009.2 0.0
15/01:00am 16.6 17.0 14.8 89 1.0 WNW 6 11 3 6 1009.7 1009.6 0.0
15/12:30am 17.2 16.8 15.2 88 1.2 NE 11 15 6 8 1010.1 1010.0 0.0
15/12:00am 17.1 17.1 15.1 88 1.2 ENE 9 13 5 7 1010.4 1010.3 0.0
 
Date/Time
EDT
Temp
°C
App
Temp
°C
Dew
Point
°C
Rel
Hum
%
Delta-T
°C
Wind Press
QNH
hPa
Press
MSL
hPa
Rain since
9am
mm
Dir  Spd
km/h
Gust
km/h
Spd
kts
Gust
kts
14/11:30pm 17.1 16.6 14.9 87 1.3 ENE 11 15 6 8 1010.8 1010.7 0.0
14/11:00pm 17.0 16.4 14.6 86 1.4 ENE 11 13 6 7 1011.2 1011.1 0.0
14/10:30pm 17.0 16.0 14.6 86 1.4 E 13 17 7 9 1011.5 1011.4 0.0
14/10:00pm 17.2 15.5 14.8 86 1.4 ESE 17 19 9 10 1011.7 1011.6 0.0
14/09:30pm 17.3 15.2 14.8 85 1.4 ESE 19 20 10 11 1011.6 1011.5 0.0
14/09:00pm 17.5 15.1 13.8 79 2.1 ESE 19 20 10 11 1011.4 1011.3 0.0
14/08:30pm 17.6 14.9 14.5 82 1.8 ESE 22 24 12 13 1011.3 1011.2 0.0
14/08:00pm 17.6 14.5 14.5 82 1.8 SE 24 28 13 15 1011.0 1010.9 0.0
14/07:30pm 17.7 14.6 14.4 81 1.9 ESE 24 28 13 15 1010.8 1010.7 0.0
14/07:00pm 17.8 13.8 14.1 79 2.1 ESE 28 32 15 17 1010.6 1010.5 0.0
14/06:30pm 19.0 17.5 14.1 73 2.8 ESE 15 17 8 9 1010.6 1010.5 0.0
14/06:00pm 19.3 17.8 14.3 73 2.9 ESE 15 17 8 9 1010.3 1010.2 0.0
14/05:30pm 19.5 18.3 14.1 71 3.1 ESE 13 15 7 8 1010.2 1010.1 0.0
14/05:00pm 20.2 18.8 13.4 65 3.9 ENE 13 17 7 9 1010.0 1009.9 0.0
14/04:30pm 20.0 17.9 13.5 66 3.7 NE 17 20 9 11 1009.9 1009.8 0.0
14/04:00pm 20.8 18.3 13.5 63 4.2 ENE 19 22 10 12 1009.8 1009.7 0.0
14/03:30pm 20.4 16.8 13.1 63 4.2 NE 24 28 13 15 1009.6 1009.5 0.0
14/03:00pm 20.1 15.9 12.3 61 4.4 NE 26 32 14 17 1009.4 1009.3 0.0
14/02:30pm 20.0 14.9 11.8 59 4.6 ENE 30 35 16 19 1009.6 1009.5 0.0
14/02:00pm 20.1 14.2 11.3 57 4.9 ENE 33 41 18 22 1009.6 1009.5 0.0
14/01:30pm 19.8 13.3 10.2 54 5.2 NE 35 43 19 23 1009.8 1009.7 0.0
14/01:00pm 20.1 13.3 10.8 55 5.1 NE 37 43 20 23 1010.1 1010.0 0.0
14/12:30pm 20.1 13.8 9.7 51 5.6 NE 33 39 18 21 1010.7 1010.6 0.0
14/12:00pm 19.5 13.3 10.0 54 5.1 NE 33 37 18 20 1011.2 1011.1 0.0
14/11:30am 19.7 14.4 9.9 53 5.3 NE 28 32 15 17 1011.7 1011.6 0.0
14/11:00am 20.0 15.7 9.3 50 5.7 NNE 22 30 12 16 1012.2 1012.1 0.0
14/10:30am 19.7 15.6 10.1 54 5.2 NNE 22 24 12 13 1012.6 1012.5 0.0
14/10:00am 19.4 15.7 9.3 52 5.3 NNE 19 24 10 13 1012.9 1012.8 0.0
14/09:30am 19.6 18.1 9.2 51 5.5 NNW 7 13 4 7 1013.4 1013.2 0.0
14/09:00am 18.7 16.6 8.4 51 5.3 NNW 9 13 5 7 1013.3 1013.1 0.0
14/08:30am 17.5 15.4 8.1 54 4.8 NNW 9 13 5 7 1013.4 1013.2 0.0
14/08:00am 17.4 15.3 8.3 55 4.7 NW 9 13 5 7 1013.4 1013.2 0.0
14/07:30am 16.2 15.2 10.9 71 2.8 NW 7 9 4 5 1013.2 1013.0 0.0
14/07:00am 16.2 15.9 11.6 74 2.5 WNW 4 6 2 3 1013.2 1013.0 0.0
14/06:30am 15.1 13.9 9.7 70 2.8 WSW 6 6 3 3 1013.1 1012.9 0.0
14/06:00am 14.9 13.8 10.1 73 2.5 WSW 6 7 3 4 1012.7 1012.6 0.0
14/05:30am 14.6 13.9 10.0 74 2.4 NW 4 6 2 3 1012.1 1012.0 0.0
14/05:00am 14.9 13.6 10.1 73 2.5 WSW 7 9 4 5 1012.1 1012.0 0.0
14/04:30am 14.8 13.9 9.2 69 2.9 W 4 6 2 3 1012.0 1011.9 0.0
14/04:00am 14.7 12.8 8.9 68 3.0 W 9 11 5 6 1012.2 1012.1 0.0
14/03:30am 14.8 13.9 10.6 76 2.2 W 6 9 3 5 1012.4 1012.3 0.0
14/03:00am 15.0 13.2 11.0 77 2.1 WNW 11 17 6 9 1012.4 1012.3 0.0
14/02:30am 14.5 12.2 10.3 76 2.2 NW 13 17 7 9 1012.3 1012.2 0.0
14/02:00am 14.8 12.9 10.6 76 2.2 NW 11 15 6 8 1012.4 1012.3 0.0
14/01:30am 15.0 13.5 10.6 75 2.3 NW 9 13 5 7 1012.3 1012.2 0.0
14/01:00am 15.6 14.1 10.4 71 2.7 NNW 9 15 5 8 1012.5 1012.4 0.0
14/12:30am 16.1 13.1 9.3 64 3.5 NNE 15 19 8 10 1012.7 1012.6 0.0
14/12:00am 16.2 13.5 8.9 62 3.8 NE 13 17 7 9 1013.1 1012.9 0.0
 
Date/Time
EDT
Temp
°C
App
Temp
°C
Dew
Point
°C
Rel
Hum
%
Delta-T
°C
Wind Press
QNH
hPa
Press
MSL
hPa
Rain since
9am
mm
Dir  Spd
km/h
Gust
km/h
Spd
kts
Gust
kts
13/11:30pm 16.3 14.3 8.5 60 4.0 NE 9 15 5 8 1013.3 1013.1 0.0
13/11:00pm 16.4 14.4 8.6 60 4.0 NE 9 13 5 7 1013.2 1013.0 0.0
13/10:30pm 16.1 14.5 8.6 61 3.8 NE 7 11 4 6 1013.2 1013.0 0.0
13/10:00pm 16.1 14.5 8.6 61 3.8 NNE 7 9 4 5 1012.9 1012.8 0.0
13/09:30pm 16.2 13.2 7.7 57 4.3 N 13 19 7 10 1012.5 1012.4 0.0
13/09:00pm 16.1 12.2 7.3 56 4.4 NNE 17 22 9 12 1011.9 1011.8 0.0
13/08:30pm 16.0 11.7 7.0 55 4.5 N 19 24 10 13 1011.5 1011.4 0.0
13/08:00pm 16.0 11.2 7.2 56 4.4 NNE 22 28 12 15 1011.0 1010.9 0.0
13/07:30pm 16.1 11.7 6.5 53 4.7 N 19 24 10 13 1010.8 1010.7 0.0
13/07:00pm 16.0 11.4 6.4 53 4.7 NNE 20 28 11 15 1010.3 1010.2 0.0
13/06:30pm 16.2 11.6 6.3 52 4.8 NE 20 28 11 15 1010.2 1010.1 0.0
13/06:00pm 16.3 12.1 5.6 49 5.2 ENE 17 20 9 11 1010.4 1010.3 0.0
13/05:30pm 16.7 12.1 5.6 48 5.4 NE 19 24 10 13 1010.1 1010.0 0.0
13/05:00pm 16.9 11.9 4.6 44 5.8 NNE 20 26 11 14 1009.9 1009.8 0.0
13/04:30pm 17.0 12.1 5.3 46 5.6 NE 20 26 11 14 1009.6 1009.5 0.0
13/04:00pm 16.8 10.8 3.5 41 6.2 ENE 24 28 13 15 1009.1 1009.0 0.0
13/03:30pm 16.8 10.8 3.5 41 6.2 ENE 24 30 13 16 1009.4 1009.3 0.0
13/03:00pm 17.8 12.2 5.4 44 6.0 ENE 24 28 13 15 1009.6 1009.5 0.0
13/02:30pm 17.4 10.5 4.4 42 6.2 E 30 33 16 18 1009.8 1009.7 0.0
13/02:00pm 18.2 12.1 4.7 41 6.5 ENE 26 32 14 17 1010.2 1010.1 0.0
13/01:30pm 17.9 11.3 2.2 35 7.1 ENE 26 30 14 16 1010.4 1010.3 0.0
13/01:00pm 17.6 11.3 3.5 39 6.6 E 26 32 14 17 1010.6 1010.5 0.0
13/12:30pm 18.0 13.1 2.3 35 7.2 E 17 20 9 11 1011.0 1010.9 0.0
13/12:00pm 17.9 13.2 1.0 32 7.5 E 15 19 8 10 1011.0 1010.9 0.0
13/11:30am 18.2 13.5 0.8 31 7.7 SSE 15 20 8 11 1011.6 1011.5 0.0
13/11:00am 19.2 13.5 0.3 28 8.4 SSW 20 28 11 15 1012.0 1011.9 0.0
13/10:30am 17.7 11.6 0.4 31 7.6 SW 22 30 12 16 1012.4 1012.3 0.0
13/10:00am 17.6 11.1 0.3 31 7.5 SW 24 33 13 18 1012.4 1012.3 0.0
13/09:30am 17.1 8.8 -0.6 30 7.5 WSW 33 46 18 25 1012.0 1011.9 0.0
13/09:00am 16.0 7.3 -0.2 33 6.9 WSW 35 52 19 28 1012.2 1012.1 0.0
13/08:30am 15.7 6.9 -0.9 32 6.9 WSW 35 48 19 26 1012.0 1011.9 0.0
13/08:00am 15.0 4.6 -0.3 35 6.4 WSW 44 56 24 30 1011.9 1011.8 0.0
13/07:49am 15.0 6.0 0.4 37 6.2 WSW 37 56 20 30 1011.7 1011.6 0.0
13/07:30am 14.4 8.6 2.3 44 5.4 WSW 22 30 12 16 1011.8 1011.7 0.0
13/07:00am 13.6 6.1 3.7 51 4.5 WSW 32 39 17 21 1011.5 1011.4 0.0
13/06:30am 12.7 5.5 4.9 59 3.6 SW 32 39 17 21 1011.3 1011.2 0.0
13/06:00am 12.2 5.1 5.6 64 3.1 SW 32 39 17 21 1010.9 1010.8 0.0
13/05:30am 12.2 2.8 5.6 64 3.1 SW 44 54 24 29 1010.1 1010.0 0.0
13/05:00am 12.3 3.0 5.7 64 3.1 SW 44 54 24 29 1009.7 1009.6 0.0
13/04:30am 12.6 3.9 5.8 63 3.2 SW 41 52 22 28 1009.7 1009.6 0.0
13/04:00am 13.2 4.4 7.2 67 2.9 SW 43 52 23 28 1009.3 1009.2 0.0
13/03:30am 13.4 5.2 6.7 64 3.2 SW 39 48 21 26 1009.3 1009.2 0.0
13/03:00am 13.8 7.7 8.2 69 2.8 SSW 30 41 16 22 1009.4 1009.3 0.0
13/02:59am 13.8 7.7 8.2 69 2.8 SSW 30 41 16 22 1009.4 1009.3 0.0
13/02:30am 13.7 10.4 9.4 75 2.2 SW 17 22 9 12 1009.3 1009.2 0.0
13/02:00am 13.8 11.3 9.6 76 2.2 WSW 13 17 7 9 1009.2 1009.1 0.0
13/01:30am 14.4 13.1 9.8 74 2.4 SW 7 13 4 7 1009.3 1009.2 0.0
13/01:00am 14.7 11.3 9.3 70 2.8 S 17 24 9 13 1009.2 1009.1 0.0
13/12:30am 14.7 10.2 8.4 66 3.2 S 22 28 12 15 1009.1 1009.0 0.0
13/12:00am 15.0 10.4 9.6 70 2.8 SSE 24 30 13 16 1008.9 1008.8 0.0
 
Date/Time
EDT
Temp
°C
App
Temp
°C
Dew
Point
°C
Rel
Hum
%
Delta-T
°C
Wind Press
QNH
hPa
Press
MSL
hPa
Rain since
9am
mm
Dir  Spd
km/h
Gust
km/h
Spd
kts
Gust
kts
12/11:30pm 15.1 9.7 9.5 69 2.9 SSE 28 32 15 17 1008.9 1008.8 0.0

Latest Capital City Observations: Canberra | Sydney | Melbourne | Brisbane | Adelaide | Perth | Hobart | Darwin

Other formats

Comma delimited format used in spreadsheet applications
http://www.bom.gov.au/fwo/IDN60903/IDN60903.94939.axf

JavaScript Object Notation format (JSON) in row-major order
http://www.bom.gov.au/fwo/IDN60903/IDN60903.94939.json

Data quality

Most of these data are generated automatically and are frequently updated. Quality checks on data are not normally performed. It is possible for incorrect values to appear. Refer to information at About Latest Weather Observations and please check the disclaimer before using these data.